.
WxDataArchive / Data Records for 2016-02-09
2016-02-08 February 2016 2016-02-10

Data Records for Tuesday, 09 February 2016

Time	Temp	Chill	HIndex	Humid	Dewpt	 Wind 	HiWind	WindDir	Rain 	Barom
-----	----	-----	------	-----	-----	------	------	-------	-----	-----
00:00	27.8	27.8	27.8	86	24.2	1	4	270	0.00	29.649 
00:05	27.6	27.6	27.6	82	22.8	1	4	248	0.00	29.649 
00:10	27.6	27.6	27.6	82	22.8	1	3	248	0.00	29.649 
00:15	27.6	27.6	27.6	82	22.8	1	4	270	0.00	29.654 
00:20	27.6	27.6	27.6	82	22.8	1	2	270	0.00	29.654 
00:25	27.5	27.5	27.5	82	22.7	1	3	270	0.00	29.654 
00:30	27.6	27.6	27.6	82	22.8	0	3	270	0.00	29.654 
00:35	27.5	27.5	27.5	82	22.7	1	3	270	0.00	29.654 
00:40	27.5	27.5	27.5	82	22.7	1	4	270	0.00	29.654 
00:45	27.3	27.3	27.3	81	22.3	2	4	292	0.00	29.651 
00:50	27.3	27.3	27.3	81	22.3	1	4	292	0.00	29.651 
00:55	27.3	27.3	27.3	81	22.3	1	3	315	0.00	29.651 
01:00	27.3	27.3	27.3	81	22.3	1	4	315	0.00	29.647 
01:05	27.3	27.3	27.3	81	22.3	1	3	315	0.00	29.647 
01:10	27.3	27.3	27.3	81	22.3	0	2	315	0.00	29.647 
01:15	27.2	27.2	27.2	81	22.2	1	2	315	0.00	29.645 
01:20	27.2	27.2	27.2	81	22.2	1	2	315	0.00	29.645 
01:25	27.0	27.0	27.0	81	22.0	1	3	292	0.00	29.645 
01:30	27.0	27.0	27.0	81	22.0	1	4	292	0.00	29.643 
01:35	27.0	27.0	27.0	81	22.0	1	4	292	0.00	29.643 
01:40	27.0	27.0	27.0	81	22.0	0	3	292	0.00	29.643 
01:45	27.0	27.0	27.0	81	22.0	1	3	292	0.00	29.638 
01:50	27.0	27.0	27.0	81	22.0	1	6	292	0.00	29.638 
01:55	26.9	26.9	26.9	81	21.9	1	6	270	0.00	29.638 
02:00	26.9	26.9	26.9	81	21.9	1	3	270	0.00	29.633 
02:05	26.9	26.9	26.9	81	21.9	2	4	270	0.00	29.633 
02:10	26.9	26.9	26.9	81	21.9	1	4	270	0.00	29.633 
02:15	26.9	26.9	26.9	81	21.9	1	4	248	0.00	29.626 
02:20	26.9	26.9	26.9	81	21.9	1	3	248	0.00	29.626 
02:25	26.9	26.9	26.9	81	21.9	1	3	248	0.00	29.626 
02:30	26.7	26.7	26.7	82	22.0	1	4	248	0.00	29.625 
02:35	26.7	26.7	26.7	82	22.0	1	4	270	0.00	29.625 
02:40	26.7	26.7	26.7	82	22.0	1	4	270	0.00	29.625 
02:45	26.7	26.7	26.7	82	22.0	1	3	270	0.00	29.622 
02:50	26.7	26.7	26.7	82	22.0	1	3	270	0.00	29.622 
02:55	26.7	26.7	26.7	82	22.0	1	3	270	0.00	29.622 
03:00	26.7	26.7	26.7	82	22.0	1	3	270	0.00	29.618 
03:05	26.7	26.7	26.7	82	22.0	0	2	270	0.00	29.618 
03:10	26.7	26.7	26.7	82	22.0	1	4	270	0.00	29.618 
03:15	26.7	26.7	26.7	82	22.0	2	4	292	0.00	29.615 
03:20	26.7	26.7	26.7	82	22.0	2	4	270	0.00	29.615 
03:25	26.7	26.7	26.7	83	22.2	1	3	270	0.00	29.615 
03:30	26.6	26.6	26.6	83	22.1	2	5	270	0.00	29.613 
03:35	26.6	26.6	26.6	83	22.1	2	4	270	0.00	29.613 
03:40	26.6	26.6	26.6	83	22.1	1	3	270	0.00	29.613 
03:45	26.6	26.6	26.6	83	22.1	1	4	270	0.00	29.607 
03:50	26.6	26.6	26.6	83	22.1	1	5	270	0.00	29.607 
03:55	26.6	26.6	26.6	83	22.1	2	5	292	0.00	29.607 
04:00	26.6	26.6	26.6	83	22.1	1	2	292	0.00	29.602 
04:05	26.6	26.6	26.6	83	22.1	2	3	292	0.00	29.602 
04:10	26.6	26.6	26.6	84	22.4	1	3	292	0.00	29.602 
04:15	26.4	26.4	26.4	84	22.2	1	3	292	0.00	29.605 
04:20	26.4	26.4	26.4	84	22.2	1	3	292	0.00	29.605 
04:25	26.3	26.3	26.3	84	22.1	1	3	248	0.00	29.605 
04:30	26.3	26.3	26.3	84	22.1	1	4	248	0.00	29.602 
04:35	26.1	26.1	26.1	84	21.9	2	4	248	0.00	29.602 
04:40	26.3	26.3	26.3	84	22.1	1	3	292	0.00	29.602 
04:45	26.3	26.3	26.3	84	22.1	1	2	292	0.00	29.607 
04:50	26.3	26.3	26.3	84	22.1	1	3	292	0.00	29.607 
04:55	26.3	26.3	26.3	84	22.1	1	4	292	0.00	29.607 
05:00	26.1	26.1	26.1	84	21.9	1	3	292	0.00	29.613 
05:05	26.1	26.1	26.1	83	21.7	1	3	292	0.00	29.613 
05:10	26.1	26.1	26.1	83	21.7	2	4	292	0.00	29.613 
05:15	26.1	26.1	26.1	83	21.7	1	3	292	0.00	29.618 
05:20	26.1	26.1	26.1	83	21.7	2	4	292	0.00	29.618 
05:25	26.1	26.1	26.1	84	21.9	1	3	292	0.00	29.618 
05:30	26.1	26.1	26.1	84	21.9	1	4	292	0.00	29.619 
05:35	26.0	26.0	26.0	84	21.8	1	4	248	0.00	29.619 
05:40	26.0	26.0	26.0	84	21.8	1	4	248	0.00	29.619 
05:45	26.0	26.0	26.0	84	21.8	1	4	248	0.00	29.622 
05:50	26.0	26.0	26.0	84	21.8	2	4	248	0.00	29.622 
05:55	26.0	26.0	26.0	84	21.8	2	4	292	0.00	29.622 
06:00	25.8	25.8	25.8	84	21.6	1	3	292	0.00	29.627 
06:05	25.8	25.8	25.8	85	21.9	1	4	292	0.00	29.627 
06:10	25.8	25.8	25.8	85	21.9	1	3	292	0.00	29.627 
06:15	25.8	25.8	25.8	85	21.9	2	4	270	0.00	29.630 
06:20	25.8	25.8	25.8	85	21.9	1	4	270	0.00	29.630 
06:25	25.8	25.8	25.8	85	21.9	1	3	270	0.00	29.630 
06:30	25.8	25.8	25.8	85	21.9	1	3	270	0.00	29.633 
06:35	25.7	25.7	25.7	85	21.8	2	4	270	0.00	29.633 
06:40	25.7	25.7	25.7	84	21.5	1	4	292	0.00	29.633 
06:45	25.6	25.6	25.6	84	21.5	2	4	270	0.00	29.635 
06:50	25.6	25.6	25.6	84	21.5	2	4	270	0.00	29.635 
06:55	25.4	25.4	25.4	84	21.3	2	5	270	0.00	29.635 
07:00	25.4	25.4	25.4	84	21.3	1	4	270	0.00	29.639 
07:05	25.4	25.4	25.4	84	21.3	1	4	270	0.00	29.639 
07:10	25.4	25.4	25.4	84	21.3	1	3	270	0.00	29.639 
07:15	25.4	25.4	25.4	84	21.3	1	3	270	0.00	29.645 
07:20	25.4	25.4	25.4	84	21.3	1	3	270	0.00	29.645 
07:25	25.3	25.3	25.3	85	21.4	1	3	270	0.00	29.645 
07:30	25.3	25.3	25.3	85	21.4	1	4	270	0.00	29.647 
07:35	25.3	25.3	25.3	85	21.4	1	5	270	0.00	29.647 
07:40	25.3	25.3	25.3	85	21.4	1	3	270	0.00	29.647 
07:45	25.1	25.1	25.1	85	21.2	1	3	270	0.00	29.650 
07:50	25.1	25.1	25.1	86	21.5	0	3	270	0.00	29.650 
07:55	25.1	25.1	25.1	86	21.5	2	4	270	0.00	29.650 
08:00	25.0	25.0	25.0	86	21.4	2	4	270	0.00	29.652 
08:05	25.0	25.0	25.0	86	21.4	2	5	292	0.00	29.652 
08:10	25.0	25.0	25.0	86	21.4	1	2	292	0.00	29.652 
08:15	25.0	25.0	25.0	86	21.4	1	4	270	0.00	29.654 
08:20	24.8	24.8	24.8	86	21.2	2	4	270	0.00	29.654 
08:25	24.8	24.8	24.8	86	21.2	1	3	292	0.00	29.654 
08:30	24.7	24.7	24.7	86	21.1	2	5	270	0.00	29.657 
08:35	24.7	24.7	24.7	86	21.1	2	4	270	0.00	29.657 
08:40	24.7	24.7	24.7	86	21.1	2	4	270	0.00	29.657 
08:45	24.7	24.7	24.7	85	20.8	2	5	270	0.00	29.666 
08:50	24.7	24.7	24.7	85	20.8	2	4	270	0.00	29.666 
08:55	24.7	24.7	24.7	84	20.6	2	5	270	0.00	29.666 
09:00	24.8	24.8	24.8	84	20.7	2	6	292	0.00	29.668 
09:05	24.8	24.8	24.8	84	20.7	2	3	248	0.00	29.668 
09:10	24.8	24.8	24.8	84	20.7	2	4	270	0.00	29.668 
09:15	24.8	24.8	24.8	84	20.7	1	4	270	0.00	29.669 
09:20	25.0	25.0	25.0	84	20.9	1	3	270	0.00	29.669 
09:25	25.0	25.0	25.0	83	20.6	1	3	270	0.00	29.669 
09:30	25.0	25.0	25.0	83	20.6	1	3	248	0.00	29.671 
09:35	25.1	25.1	25.1	83	20.7	1	3	248	0.00	29.671 
09:40	25.0	25.0	25.0	83	20.6	2	4	270	0.00	29.671 
09:45	25.1	25.1	25.1	83	20.7	1	4	270	0.00	29.673 
09:50	25.1	25.1	25.1	83	20.7	1	3	270	0.00	29.673 
09:55	25.3	25.3	25.3	82	20.6	2	4	270	0.00	29.673 
10:00	25.4	25.4	25.4	83	21.0	1	3	270	0.00	29.672 
10:05	25.4	25.4	25.4	82	20.7	2	6	292	0.00	29.672 
10:10	25.6	25.6	25.6	82	20.9	2	4	292	0.00	29.672 
10:15	25.7	25.7	25.7	82	21.0	1	3	292	0.00	29.674 
10:20	25.8	25.8	25.8	82	21.1	1	4	292	0.00	29.674 
10:25	26.0	26.0	26.0	82	21.3	1	3	270	0.00	29.674 
10:30	26.1	26.1	26.1	81	21.1	1	4	270	0.00	29.679 
10:35	26.1	26.1	26.1	81	21.1	2	5	292	0.00	29.679 
10:40	26.1	26.1	26.1	81	21.1	1	3	292	0.00	29.679 
10:45	26.1	26.1	26.1	81	21.1	1	4	292	0.00	29.684 
10:50	26.0	26.0	26.0	81	21.0	1	3	292	0.00	29.684 
10:55	25.8	25.8	25.8	81	20.8	1	3	292	0.00	29.684 
11:00	25.7	25.7	25.7	81	20.7	1	4	292	0.00	29.685 
11:05	25.6	25.6	25.6	81	20.6	1	4	270	0.00	29.685 
11:10	25.6	25.6	25.6	81	20.6	1	4	270	0.00	29.685 
11:15	25.6	25.6	25.6	81	20.6	0	2	270	0.00	29.688 
11:20	25.6	25.6	25.6	81	20.6	1	4	270	0.00	29.688 
11:25	25.6	25.6	25.6	81	20.6	1	3	270	0.00	29.688 
11:30	25.6	25.6	25.6	81	20.6	1	4	292	0.00	29.689 
11:35	25.6	25.6	25.6	82	20.9	0	2	292	0.00	29.689 
11:40	25.7	25.7	25.7	82	21.0	0	2	292	0.00	29.689 
11:45	26.0	26.0	26.0	82	21.3	1	3	292	0.00	29.687 
11:50	26.1	26.1	26.1	82	21.4	0	2	292	0.00	29.687 
11:55	26.3	26.3	26.3	82	21.6	1	2	292	0.00	29.687 
12:00	26.4	26.4	26.4	83	22.0	0	2	270	0.00	29.687 
12:05	26.6	26.6	26.6	82	21.9	0	2	270	0.00	29.687 
12:10	26.9	26.9	26.9	83	22.4	0	2	270	0.00	29.687 
12:15	27.0	27.0	27.0	82	22.3	0	2	270	0.00	29.685 
12:20	27.2	27.2	27.2	82	22.4	1	3	270	0.00	29.685 
12:25	27.3	27.3	27.3	82	22.5	1	3	270	0.00	29.685 
12:30	27.5	27.5	27.5	82	22.7	0	2	270	0.00	29.684 
12:35	27.6	27.6	27.6	82	22.8	0	1	270	0.00	29.684 
12:40	27.9	27.9	27.9	82	23.1	0	2	270	0.00	29.684 
12:45	28.2	28.2	28.2	81	23.1	2	7	292	0.00	29.685 
12:50	28.4	28.4	28.4	77	22.1	3	7	292	0.00	29.685 
12:55	28.7	28.7	28.7	74	21.5	2	6	270	0.00	29.685 
13:00	28.8	28.8	28.8	72	20.9	2	9	315	0.00	29.681 
13:05	29.0	29.0	29.0	71	20.8	3	9	270	0.00	29.681 
13:10	28.8	28.8	28.8	69	19.9	3	7	292	0.00	29.681 
13:15	29.0	29.0	29.0	69	20.1	2	5	338	0.00	29.679 
13:20	29.0	29.0	29.0	70	20.5	3	10	292	0.00	29.679 
13:25	29.0	29.0	29.0	69	20.1	3	6	315	0.00	29.679 
13:30	28.8	24.4	28.8	67	19.2	4	9	292	0.00	29.677 
13:35	28.8	28.8	28.8	67	19.2	3	6	270	0.00	29.677 
13:40	29.0	29.0	29.0	67	19.4	3	7	270	0.00	29.677 
13:45	29.0	29.0	29.0	66	19.1	3	9	270	0.00	29.681 
13:50	28.8	28.8	28.8	66	18.9	3	6	270	0.00	29.681 
13:55	28.8	28.8	28.8	66	18.9	2	6	292	0.00	29.681 
14:00	28.8	24.4	28.8	65	18.5	4	9	292	0.00	29.683 
14:05	28.8	28.8	28.8	65	18.5	3	7	270	0.00	29.683 
14:10	28.7	28.7	28.7	65	18.4	3	11	292	0.00	29.683 
14:15	28.8	28.8	28.8	66	18.9	2	4	315	0.00	29.684 
14:20	28.8	28.8	28.8	64	18.2	3	9	270	0.00	29.684 
14:25	28.8	28.8	28.8	63	17.8	3	9	270	0.00	29.684 
14:30	28.7	28.7	28.7	64	18.1	3	6	292	0.00	29.688 
14:35	28.7	28.7	28.7	64	18.1	3	6	315	0.00	29.688 
14:40	28.5	28.5	28.5	65	18.3	2	5	270	0.00	29.688 
14:45	28.5	28.5	28.5	65	18.3	1	3	315	0.00	29.689 
14:50	28.4	28.4	28.4	65	18.2	3	6	315	0.00	29.689 
14:55	28.2	28.2	28.2	65	18.0	3	9	270	0.00	29.689 
15:00	28.1	28.1	28.1	65	17.9	2	6	292	0.00	29.696 
15:05	28.1	28.1	28.1	65	17.9	3	5	292	0.00	29.696 
15:10	27.9	27.9	27.9	65	17.7	3	6	270	0.00	29.696 
15:15	27.9	27.9	27.9	66	18.0	3	6	292	0.00	29.701 
15:20	27.8	27.8	27.8	67	18.3	3	7	292	0.00	29.701 
15:25	27.8	27.8	27.8	66	17.9	2	6	292	0.00	29.701 
15:30	27.8	27.8	27.8	66	17.9	3	9	248	0.00	29.707 
15:35	27.8	27.8	27.8	66	17.9	3	6	292	0.00	29.707 
15:40	27.6	27.6	27.6	67	18.1	3	8	292	0.00	29.707 
15:45	27.5	27.5	27.5	68	18.3	3	5	270	0.00	29.717 
15:50	27.3	27.3	27.3	68	18.2	3	8	292	0.00	29.717 
15:55	27.2	27.2	27.2	67	17.7	3	7	270	0.00	29.717 
16:00	27.2	27.2	27.2	67	17.7	3	6	270	0.00	29.726 
16:05	27.0	27.0	27.0	67	17.5	3	5	270	0.00	29.726 
16:10	27.0	27.0	27.0	68	17.9	2	4	270	0.00	29.726 
16:15	27.0	27.0	27.0	68	17.9	2	4	292	0.00	29.738 
16:20	26.7	22.0	26.7	67	17.2	4	9	270	0.00	29.738 
16:25	26.6	26.6	26.6	66	16.8	3	7	292	0.00	29.738 
16:30	26.6	26.6	26.6	65	16.4	3	5	270	0.00	29.745 
16:35	26.4	26.4	26.4	65	16.3	3	7	270	0.00	29.745 
16:40	26.3	26.3	26.3	65	16.2	3	7	270	0.00	29.745 
16:45	26.1	26.1	26.1	65	16.0	3	11	292	0.00	29.753 
16:50	26.1	26.1	26.1	67	16.7	2	5	292	0.00	29.753 
16:55	26.0	26.0	26.0	68	16.9	2	6	292	0.00	29.753 
17:00	26.0	26.0	26.0	69	17.2	3	7	292	0.00	29.763 
17:05	25.8	25.8	25.8	70	17.4	2	6	292	0.00	29.763 
17:10	25.8	25.8	25.8	70	17.4	2	6	292	0.00	29.763 
17:15	25.7	25.7	25.7	69	17.0	3	11	270	0.00	29.767 
17:20	25.7	25.7	25.7	69	17.0	2	6	292	0.00	29.767 
17:25	25.6	25.6	25.6	69	16.9	3	6	270	0.00	29.767 
17:30	25.4	25.4	25.4	69	16.7	3	6	270	0.00	29.776 
17:35	25.3	20.3	25.3	68	16.2	4	7	270	0.00	29.776 
17:40	25.1	25.1	25.1	68	16.1	3	6	292	0.00	29.776 
17:45	25.1	25.1	25.1	69	16.4	3	6	270	0.00	29.785 
17:50	25.0	25.0	25.0	69	16.3	3	6	292	0.00	29.785 
17:55	24.8	24.8	24.8	69	16.1	3	5	292	0.00	29.785 
18:00	24.7	24.7	24.7	70	16.3	3	6	270	0.00	29.793 
18:05	24.7	24.7	24.7	71	16.7	2	5	292	0.00	29.793 
18:10	24.5	24.5	24.5	72	16.8	2	6	270	0.00	29.793 
18:15	24.2	24.2	24.2	73	16.8	2	5	270	0.00	29.803 
18:20	24.1	24.1	24.1	73	16.7	3	5	248	0.00	29.803 
18:25	23.9	23.9	23.9	73	16.5	2	6	292	0.00	29.803 
18:30	23.8	23.8	23.8	73	16.4	3	5	270	0.00	29.816 
18:35	23.8	23.8	23.8	73	16.4	3	5	270	0.00	29.816 
18:40	23.6	23.6	23.6	73	16.2	3	5	270	0.00	29.816 
18:45	23.5	23.5	23.5	73	16.1	3	5	270	0.00	29.819 
18:50	23.5	23.5	23.5	74	16.5	2	5	270	0.00	29.819 
18:55	23.3	23.3	23.3	74	16.3	3	5	270	0.00	29.819 
19:00	23.0	23.0	23.0	74	16.0	3	4	292	0.00	29.828 
19:05	22.9	22.9	22.9	74	15.9	3	6	270	0.00	29.828 
19:10	22.9	22.9	22.9	74	15.9	3	6	292	0.00	29.828 
19:15	22.7	22.7	22.7	74	15.7	3	8	270	0.00	29.834 
19:20	22.5	22.5	22.5	74	15.5	2	5	292	0.00	29.834 
19:25	22.4	22.4	22.4	74	15.4	2	5	270	0.00	29.834 
19:30	22.4	22.4	22.4	74	15.4	3	5	270	0.00	29.838 
19:35	22.2	22.2	22.2	74	15.2	2	4	270	0.00	29.838 
19:40	22.2	22.2	22.2	73	14.9	2	5	292	0.00	29.838 
19:45	22.1	22.1	22.1	73	14.8	2	6	270	0.00	29.847 
19:50	21.8	21.8	21.8	73	14.5	3	6	270	0.00	29.847 
19:55	21.8	21.8	21.8	74	14.8	2	6	270	0.00	29.847 
20:00	21.6	21.6	21.6	74	14.6	2	5	270	0.00	29.848 
20:05	21.6	21.6	21.6	74	14.6	3	6	270	0.00	29.848 
20:10	21.6	21.6	21.6	74	14.6	1	4	292	0.00	29.848 
20:15	21.4	21.4	21.4	74	14.4	2	5	270	0.00	29.850 
20:20	21.3	21.3	21.3	75	14.6	2	4	292	0.00	29.850 
20:25	21.3	21.3	21.3	75	14.6	1	5	292	0.00	29.850 
20:30	21.1	21.1	21.1	75	14.4	1	3	270	0.00	29.851 
20:35	21.0	21.0	21.0	74	14.0	2	7	292	0.00	29.851 
20:40	21.0	21.0	21.0	74	14.0	2	4	248	0.00	29.851 
20:45	20.8	20.8	20.8	74	13.8	3	10	270	0.00	29.852 
20:50	20.6	20.6	20.6	74	13.7	2	3	270	0.00	29.852 
20:55	20.6	20.6	20.6	74	13.7	2	5	292	0.00	29.852 
21:00	20.6	20.6	20.6	74	13.7	1	4	270	0.00	29.852 
21:05	20.6	20.6	20.6	74	13.7	1	4	248	0.00	29.852 
21:10	20.5	20.5	20.5	74	13.6	2	4	292	0.00	29.852 
21:15	20.5	20.5	20.5	74	13.6	2	4	248	0.00	29.851 
21:20	20.5	20.5	20.5	74	13.6	1	4	248	0.00	29.851 
21:25	20.3	20.3	20.3	73	13.1	2	5	270	0.00	29.851 
21:30	20.3	20.3	20.3	74	13.4	1	3	270	0.00	29.853 
21:35	20.3	20.3	20.3	74	13.4	2	6	292	0.00	29.853 
21:40	20.2	20.2	20.2	74	13.3	2	6	270	0.00	29.853 
21:45	20.2	20.2	20.2	74	13.3	2	8	270	0.00	29.853 
21:50	20.0	20.0	20.0	74	13.1	2	4	292	0.00	29.853 
21:55	20.0	20.0	20.0	74	13.1	2	4	270	0.00	29.853 
22:00	20.0	20.0	20.0	75	13.4	2	5	292	0.00	29.851 
22:05	19.9	19.9	19.9	75	13.3	2	5	270	0.00	29.851 
22:10	19.9	19.9	19.9	75	13.3	2	4	270	0.00	29.851 
22:15	19.7	19.7	19.7	75	13.1	2	4	270	0.00	29.850 
22:20	19.7	19.7	19.7	75	13.1	2	4	292	0.00	29.850 
22:25	19.5	19.5	19.5	75	12.9	2	5	270	0.00	29.850 
22:30	19.5	19.5	19.5	76	13.2	3	6	270	0.00	29.850 
22:35	19.4	19.4	19.4	76	13.1	2	5	270	0.00	29.850 
22:40	19.4	19.4	19.4	76	13.1	2	6	270	0.00	29.850 
22:45	19.2	19.2	19.2	76	12.9	1	5	292	0.00	29.852 
22:50	19.2	19.2	19.2	76	12.9	1	3	292	0.00	29.852 
22:55	19.2	19.2	19.2	76	12.9	2	7	292	0.00	29.852 
23:00	19.1	19.1	19.1	76	12.8	3	6	248	0.00	29.853 
23:05	18.9	18.9	18.9	76	12.6	2	4	270	0.00	29.853 
23:10	18.9	18.9	18.9	75	12.3	3	7	270	0.00	29.853 
23:15	18.8	18.8	18.8	75	12.2	2	5	270	0.00	29.853 
23:20	18.8	18.8	18.8	75	12.2	2	4	270	0.00	29.853 
23:25	18.8	18.8	18.8	76	12.5	1	4	270	0.00	29.853 
23:30	18.8	18.8	18.8	76	12.5	2	4	270	0.00	29.855 
23:35	18.6	18.6	18.6	76	12.3	2	6	270	0.00	29.855 
23:40	18.6	18.6	18.6	76	12.3	1	5	292	0.00	29.855 
23:45	18.6	18.6	18.6	76	12.3	2	5	292	0.00	29.855 
23:50	18.4	18.4	18.4	76	12.1	2	4	270	0.00	29.855 
23:55	18.3	18.3	18.3	77	12.3	1	3	248	0.00	29.855 

CoCoRaHS
IN-AL-39
A2 Web Hosting
Creative Commons License
GoDaddy
search engine by freefind advanced

loaded 2018-11-17 12:40:21 • last modified 2010-11-18 10:43:29
Privacy PolicyDisclaimer
• wx.awcolley.com is powered by PmWiki v.2002016 •
• all content (unless otherwise noted) © 2018 A W Colley